sensor_id;sensor_type;location;lat;lon;timestamp;P1;durP1;ratioP1;P2;durP2;ratioP2
41293;SDS011;27037;52.010;4.446;2023-01-29T00:02:17;22.85;;;13.57;;
41293;SDS011;27037;52.010;4.446;2023-01-29T00:04:43;27.35;;;14.75;;
41293;SDS011;27037;52.010;4.446;2023-01-29T00:07:09;25.48;;;13.95;;
41293;SDS011;27037;52.010;4.446;2023-01-29T00:09:34;26.55;;;15.40;;
41293;SDS011;27037;52.010;4.446;2023-01-29T00:12:00;25.15;;;15.48;;
41293;SDS011;27037;52.010;4.446;2023-01-29T00:14:26;25.20;;;15.88;;
41293;SDS011;27037;52.010;4.446;2023-01-29T00:16:52;26.70;;;14.98;;
41293;SDS011;27037;52.010;4.446;2023-01-29T00:19:18;28.58;;;16.70;;
41293;SDS011;27037;52.010;4.446;2023-01-29T00:21:43;27.60;;;15.98;;
41293;SDS011;27037;52.010;4.446;2023-01-29T00:24:09;26.55;;;16.05;;
41293;SDS011;27037;52.010;4.446;2023-01-29T00:26:35;30.05;;;16.63;;
41293;SDS011;27037;52.010;4.446;2023-01-29T00:29:03;28.30;;;16.67;;
41293;SDS011;27037;52.010;4.446;2023-01-29T00:31:29;29.73;;;16.45;;
41293;SDS011;27037;52.010;4.446;2023-01-29T00:33:54;28.00;;;16.23;;
41293;SDS011;27037;52.010;4.446;2023-01-29T00:36:20;24.77;;;15.70;;
41293;SDS011;27037;52.010;4.446;2023-01-29T00:38:47;26.77;;;16.00;;
41293;SDS011;27037;52.010;4.446;2023-01-29T00:41:22;25.13;;;15.60;;
41293;SDS011;27037;52.010;4.446;2023-01-29T00:44:08;27.42;;;16.65;;
41293;SDS011;27037;52.010;4.446;2023-01-29T00:46:52;26.48;;;16.77;;
41293;SDS011;27037;52.010;4.446;2023-01-29T00:49:18;29.70;;;16.95;;
41293;SDS011;27037;52.010;4.446;2023-01-29T00:51:44;26.90;;;15.18;;
41293;SDS011;27037;52.010;4.446;2023-01-29T00:54:29;31.67;;;17.58;;
41293;SDS011;27037;52.010;4.446;2023-01-29T00:56:55;28.40;;;16.88;;
41293;SDS011;27037;52.010;4.446;2023-01-29T00:59:21;27.50;;;16.70;;
41293;SDS011;27037;52.010;4.446;2023-01-29T01:01:46;34.00;;;16.25;;
41293;SDS011;27037;52.010;4.446;2023-01-29T01:04:31;25.90;;;15.80;;
41293;SDS011;27037;52.010;4.446;2023-01-29T01:06:56;26.10;;;16.15;;
41293;SDS011;27037;52.010;4.446;2023-01-29T01:09:22;28.85;;;16.65;;
41293;SDS011;27037;52.010;4.446;2023-01-29T01:12:06;27.67;;;16.55;;
41293;SDS011;27037;52.010;4.446;2023-01-29T01:14:32;26.73;;;16.45;;
41293;SDS011;27037;52.010;4.446;2023-01-29T01:17:00;25.27;;;15.73;;
41293;SDS011;27037;52.010;4.446;2023-01-29T01:19:25;26.67;;;15.27;;
41293;SDS011;27037;52.010;4.446;2023-01-29T01:21:51;29.25;;;15.52;;
41293;SDS011;27037;52.010;4.446;2023-01-29T01:24:16;29.55;;;16.45;;
41293;SDS011;27037;52.010;4.446;2023-01-29T01:26:44;28.67;;;16.63;;
41293;SDS011;27037;52.010;4.446;2023-01-29T01:29:10;27.08;;;15.40;;
41293;SDS011;27037;52.010;4.446;2023-01-29T01:31:35;26.25;;;16.17;;
41293;SDS011;27037;52.010;4.446;2023-01-29T01:34:01;28.42;;;15.82;;
41293;SDS011;27037;52.010;4.446;2023-01-29T01:36:26;27.98;;;15.68;;
41293;SDS011;27037;52.010;4.446;2023-01-29T01:38:52;29.52;;;16.25;;
41293;SDS011;27037;52.010;4.446;2023-01-29T01:41:19;28.25;;;16.02;;
41293;SDS011;27037;52.010;4.446;2023-01-29T01:43:47;31.25;;;16.27;;
41293;SDS011;27037;52.010;4.446;2023-01-29T01:46:17;27.42;;;16.05;;
41293;SDS011;27037;52.010;4.446;2023-01-29T01:48:44;32.28;;;16.90;;
41293;SDS011;27037;52.010;4.446;2023-01-29T01:51:16;30.38;;;16.85;;
41293;SDS011;27037;52.010;4.446;2023-01-29T01:53:47;28.27;;;16.70;;
41293;SDS011;27037;52.010;4.446;2023-01-29T01:56:28;30.92;;;17.65;;
41293;SDS011;27037;52.010;4.446;2023-01-29T01:59:02;28.35;;;16.90;;
41293;SDS011;27037;52.010;4.446;2023-01-29T02:01:32;32.13;;;17.35;;
41293;SDS011;27037;52.010;4.446;2023-01-29T02:04:00;32.55;;;18.08;;
41293;SDS011;27037;52.010;4.446;2023-01-29T02:06:46;30.55;;;17.42;;
41293;SDS011;27037;52.010;4.446;2023-01-29T02:09:33;31.65;;;17.25;;
41293;SDS011;27037;52.010;4.446;2023-01-29T02:12:07;32.42;;;18.40;;
41293;SDS011;27037;52.010;4.446;2023-01-29T02:14:36;32.05;;;18.15;;
41293;SDS011;27037;52.010;4.446;2023-01-29T02:17:04;30.42;;;17.52;;
41293;SDS011;27037;52.010;4.446;2023-01-29T02:27:32;37.63;;;19.98;;
41293;SDS011;27037;52.010;4.446;2023-01-29T02:30:25;39.58;;;20.38;;
41293;SDS011;27037;52.010;4.446;2023-01-29T02:33:04;35.05;;;19.77;;
41293;SDS011;27037;52.010;4.446;2023-01-29T02:38:42;35.13;;;20.05;;
41293;SDS011;27037;52.010;4.446;2023-01-29T02:49:23;40.90;;;22.02;;
41293;SDS011;27037;52.010;4.446;2023-01-29T02:54:43;39.45;;;21.55;;
41293;SDS011;27037;52.010;4.446;2023-01-29T02:57:26;43.65;;;22.27;;
41293;SDS011;27037;52.010;4.446;2023-01-29T03:03:07;40.55;;;21.27;;
41293;SDS011;27037;52.010;4.446;2023-01-29T03:08:33;37.35;;;21.15;;
41293;SDS011;27037;52.010;4.446;2023-01-29T03:11:10;39.55;;;21.38;;
41293;SDS011;27037;52.010;4.446;2023-01-29T03:13:56;39.42;;;21.38;;
41293;SDS011;27037;52.010;4.446;2023-01-29T03:19:26;38.28;;;21.10;;
41293;SDS011;27037;52.010;4.446;2023-01-29T03:21:47;41.00;;;21.52;;
41293;SDS011;27037;52.010;4.446;2023-01-29T03:27:18;39.22;;;21.70;;
41293;SDS011;27037;52.010;4.446;2023-01-29T03:30:05;39.85;;;21.55;;
41293;SDS011;27037;52.010;4.446;2023-01-29T03:32:54;38.25;;;20.73;;
41293;SDS011;27037;52.010;4.446;2023-01-29T03:35:23;42.58;;;21.83;;
41293;SDS011;27037;52.010;4.446;2023-01-29T03:38:00;43.33;;;21.48;;
41293;SDS011;27037;52.010;4.446;2023-01-29T03:41:15;37.25;;;20.90;;
41293;SDS011;27037;52.010;4.446;2023-01-29T03:46:05;37.22;;;21.20;;
41293;SDS011;27037;52.010;4.446;2023-01-29T03:54:24;32.07;;;19.47;;
41293;SDS011;27037;52.010;4.446;2023-01-29T03:57:04;32.38;;;19.65;;
41293;SDS011;27037;52.010;4.446;2023-01-29T03:59:56;33.28;;;18.77;;
41293;SDS011;27037;52.010;4.446;2023-01-29T04:02:41;32.50;;;18.27;;
41293;SDS011;27037;52.010;4.446;2023-01-29T04:05:22;32.17;;;19.08;;
41293;SDS011;27037;52.010;4.446;2023-01-29T04:07:52;37.20;;;18.45;;
41293;SDS011;27037;52.010;4.446;2023-01-29T04:10:26;31.70;;;18.88;;
41293;SDS011;27037;52.010;4.446;2023-01-29T04:13:00;31.55;;;18.25;;
41293;SDS011;27037;52.010;4.446;2023-01-29T04:15:29;29.70;;;18.40;;
41293;SDS011;27037;52.010;4.446;2023-01-29T04:17:59;30.80;;;18.30;;
41293;SDS011;27037;52.010;4.446;2023-01-29T04:20:25;29.10;;;17.67;;
41293;SDS011;27037;52.010;4.446;2023-01-29T04:22:51;31.23;;;18.83;;
41293;SDS011;27037;52.010;4.446;2023-01-29T04:25:21;30.55;;;18.33;;
41293;SDS011;27037;52.010;4.446;2023-01-29T04:28:14;30.60;;;18.40;;
41293;SDS011;27037;52.010;4.446;2023-01-29T04:30:58;27.50;;;17.50;;
41293;SDS011;27037;52.010;4.446;2023-01-29T04:33:38;28.35;;;17.33;;
41293;SDS011;27037;52.010;4.446;2023-01-29T04:44:19;31.15;;;18.00;;
41293;SDS011;27037;52.010;4.446;2023-01-29T04:52:48;30.17;;;17.98;;
41293;SDS011;27037;52.010;4.446;2023-01-29T04:58:20;33.78;;;19.20;;
41293;SDS011;27037;52.010;4.446;2023-01-29T05:00:55;32.10;;;19.52;;
41293;SDS011;27037;52.010;4.446;2023-01-29T05:03:23;31.48;;;18.73;;
41293;SDS011;27037;52.010;4.446;2023-01-29T05:05:51;30.42;;;18.08;;
41293;SDS011;27037;52.010;4.446;2023-01-29T05:08:20;31.73;;;19.48;;
41293;SDS011;27037;52.010;4.446;2023-01-29T05:10:48;33.92;;;18.90;;
41293;SDS011;27037;52.010;4.446;2023-01-29T05:13:16;33.03;;;19.80;;
41293;SDS011;27037;52.010;4.446;2023-01-29T05:15:48;31.23;;;19.33;;
41293;SDS011;27037;52.010;4.446;2023-01-29T05:18:20;34.45;;;19.48;;
41293;SDS011;27037;52.010;4.446;2023-01-29T05:20:46;32.28;;;19.17;;
41293;SDS011;27037;52.010;4.446;2023-01-29T05:23:16;29.75;;;18.77;;
41293;SDS011;27037;52.010;4.446;2023-01-29T05:25:44;31.92;;;19.30;;
41293;SDS011;27037;52.010;4.446;2023-01-29T05:28:10;35.97;;;20.30;;
41293;SDS011;27037;52.010;4.446;2023-01-29T05:30:40;33.40;;;20.30;;
41293;SDS011;27037;52.010;4.446;2023-01-29T05:33:26;33.78;;;20.08;;
41293;SDS011;27037;52.010;4.446;2023-01-29T05:35:53;32.33;;;19.77;;
41293;SDS011;27037;52.010;4.446;2023-01-29T05:38:20;34.30;;;20.15;;
41293;SDS011;27037;52.010;4.446;2023-01-29T05:40:46;38.42;;;20.63;;
41293;SDS011;27037;52.010;4.446;2023-01-29T05:43:14;33.40;;;19.92;;
41293;SDS011;27037;52.010;4.446;2023-01-29T05:48:23;33.10;;;20.48;;
41293;SDS011;27037;52.010;4.446;2023-01-29T05:50:49;34.33;;;20.83;;
41293;SDS011;27037;52.010;4.446;2023-01-29T05:53:16;33.97;;;19.85;;
41293;SDS011;27037;52.010;4.446;2023-01-29T05:55:45;35.65;;;20.75;;
41293;SDS011;27037;52.010;4.446;2023-01-29T05:58:11;34.20;;;18.98;;
41293;SDS011;27037;52.010;4.446;2023-01-29T06:00:37;32.22;;;19.75;;
41293;SDS011;27037;52.010;4.446;2023-01-29T06:03:03;34.38;;;20.77;;
41293;SDS011;27037;52.010;4.446;2023-01-29T06:05:28;36.92;;;20.55;;
41293;SDS011;27037;52.010;4.446;2023-01-29T06:07:54;33.72;;;20.27;;
41293;SDS011;27037;52.010;4.446;2023-01-29T06:10:20;35.78;;;20.73;;
41293;SDS011;27037;52.010;4.446;2023-01-29T06:12:45;36.72;;;20.08;;
41293;SDS011;27037;52.010;4.446;2023-01-29T06:15:11;35.28;;;20.33;;
41293;SDS011;27037;52.010;4.446;2023-01-29T06:17:39;35.15;;;19.88;;
41293;SDS011;27037;52.010;4.446;2023-01-29T06:20:05;32.75;;;19.67;;
41293;SDS011;27037;52.010;4.446;2023-01-29T06:22:31;35.05;;;20.80;;
41293;SDS011;27037;52.010;4.446;2023-01-29T06:24:57;33.78;;;19.92;;
41293;SDS011;27037;52.010;4.446;2023-01-29T06:27:23;33.92;;;21.05;;
41293;SDS011;27037;52.010;4.446;2023-01-29T06:29:48;36.85;;;21.67;;
41293;SDS011;27037;52.010;4.446;2023-01-29T06:32:14;32.20;;;19.52;;
41293;SDS011;27037;52.010;4.446;2023-01-29T06:34:40;34.85;;;19.20;;
41293;SDS011;27037;52.010;4.446;2023-01-29T06:37:05;33.63;;;19.65;;
41293;SDS011;27037;52.010;4.446;2023-01-29T06:39:32;33.15;;;20.15;;
41293;SDS011;27037;52.010;4.446;2023-01-29T06:41:58;33.58;;;20.02;;
41293;SDS011;27037;52.010;4.446;2023-01-29T06:44:24;35.90;;;20.25;;
41293;SDS011;27037;52.010;4.446;2023-01-29T06:46:49;31.77;;;19.70;;
41293;SDS011;27037;52.010;4.446;2023-01-29T06:49:15;32.72;;;18.60;;
41293;SDS011;27037;52.010;4.446;2023-01-29T06:51:40;36.50;;;19.98;;
41293;SDS011;27037;52.010;4.446;2023-01-29T06:54:06;34.50;;;21.15;;
41293;SDS011;27037;52.010;4.446;2023-01-29T06:56:34;32.30;;;19.98;;
41293;SDS011;27037;52.010;4.446;2023-01-29T06:58:59;34.83;;;20.17;;
41293;SDS011;27037;52.010;4.446;2023-01-29T07:01:25;35.00;;;19.85;;
41293;SDS011;27037;52.010;4.446;2023-01-29T07:03:51;32.78;;;20.02;;
41293;SDS011;27037;52.010;4.446;2023-01-29T07:06:17;33.42;;;20.02;;
41293;SDS011;27037;52.010;4.446;2023-01-29T07:08:43;35.90;;;20.85;;
41293;SDS011;27037;52.010;4.446;2023-01-29T07:11:09;34.03;;;21.63;;
41293;SDS011;27037;52.010;4.446;2023-01-29T07:13:35;32.85;;;20.15;;
41293;SDS011;27037;52.010;4.446;2023-01-29T07:16:01;33.17;;;20.23;;
41293;SDS011;27037;52.010;4.446;2023-01-29T07:18:28;37.88;;;21.83;;
41293;SDS011;27037;52.010;4.446;2023-01-29T07:20:55;34.45;;;20.45;;
41293;SDS011;27037;52.010;4.446;2023-01-29T07:23:21;33.33;;;20.90;;
41293;SDS011;27037;52.010;4.446;2023-01-29T07:25:47;35.28;;;21.75;;
41293;SDS011;27037;52.010;4.446;2023-01-29T07:28:14;38.80;;;21.40;;
41293;SDS011;27037;52.010;4.446;2023-01-29T07:30:43;38.45;;;22.50;;
41293;SDS011;27037;52.010;4.446;2023-01-29T07:33:09;41.17;;;21.25;;
41293;SDS011;27037;52.010;4.446;2023-01-29T07:35:35;34.22;;;20.83;;
41293;SDS011;27037;52.010;4.446;2023-01-29T07:38:06;37.85;;;21.70;;
41293;SDS011;27037;52.010;4.446;2023-01-29T07:40:33;38.58;;;21.88;;
41293;SDS011;27037;52.010;4.446;2023-01-29T07:43:00;37.92;;;21.67;;
41293;SDS011;27037;52.010;4.446;2023-01-29T07:45:27;40.60;;;22.80;;
41293;SDS011;27037;52.010;4.446;2023-01-29T07:47:54;38.60;;;21.48;;
41293;SDS011;27037;52.010;4.446;2023-01-29T07:50:24;35.83;;;22.67;;
41293;SDS011;27037;52.010;4.446;2023-01-29T07:52:52;37.42;;;22.30;;
41293;SDS011;27037;52.010;4.446;2023-01-29T07:55:18;42.10;;;23.17;;
41293;SDS011;27037;52.010;4.446;2023-01-29T07:57:44;38.08;;;22.02;;
41293;SDS011;27037;52.010;4.446;2023-01-29T08:00:11;37.22;;;22.10;;
41293;SDS011;27037;52.010;4.446;2023-01-29T08:02:38;38.40;;;23.42;;
41293;SDS011;27037;52.010;4.446;2023-01-29T08:05:04;40.05;;;22.95;;
41293;SDS011;27037;52.010;4.446;2023-01-29T08:07:29;38.05;;;22.27;;
41293;SDS011;27037;52.010;4.446;2023-01-29T08:09:55;37.92;;;23.17;;
41293;SDS011;27037;52.010;4.446;2023-01-29T08:12:21;38.47;;;23.00;;
41293;SDS011;27037;52.010;4.446;2023-01-29T08:14:46;39.70;;;23.30;;
41293;SDS011;27037;52.010;4.446;2023-01-29T08:17:12;39.65;;;24.15;;
41293;SDS011;27037;52.010;4.446;2023-01-29T08:19:38;39.58;;;23.38;;
41293;SDS011;27037;52.010;4.446;2023-01-29T08:22:04;38.25;;;23.40;;
41293;SDS011;27037;52.010;4.446;2023-01-29T08:24:30;41.25;;;23.88;;
41293;SDS011;27037;52.010;4.446;2023-01-29T08:26:56;43.03;;;24.10;;
41293;SDS011;27037;52.010;4.446;2023-01-29T08:29:21;40.53;;;23.55;;
41293;SDS011;27037;52.010;4.446;2023-01-29T08:31:47;43.17;;;23.63;;
41293;SDS011;27037;52.010;4.446;2023-01-29T08:34:12;39.45;;;23.67;;
41293;SDS011;27037;52.010;4.446;2023-01-29T08:36:38;42.45;;;25.10;;
41293;SDS011;27037;52.010;4.446;2023-01-29T08:39:04;41.97;;;24.48;;
41293;SDS011;27037;52.010;4.446;2023-01-29T08:41:29;40.90;;;23.40;;
41293;SDS011;27037;52.010;4.446;2023-01-29T08:43:55;42.47;;;24.80;;
41293;SDS011;27037;52.010;4.446;2023-01-29T08:46:21;42.25;;;25.38;;
41293;SDS011;27037;52.010;4.446;2023-01-29T08:48:47;42.03;;;24.60;;
41293;SDS011;27037;52.010;4.446;2023-01-29T08:51:13;43.25;;;25.90;;
41293;SDS011;27037;52.010;4.446;2023-01-29T08:53:39;42.10;;;24.23;;
41293;SDS011;27037;52.010;4.446;2023-01-29T08:56:04;44.33;;;24.38;;
41293;SDS011;27037;52.010;4.446;2023-01-29T08:58:30;43.97;;;24.67;;
41293;SDS011;27037;52.010;4.446;2023-01-29T09:00:56;42.58;;;25.25;;
41293;SDS011;27037;52.010;4.446;2023-01-29T09:03:30;52.72;;;27.27;;
41293;SDS011;27037;52.010;4.446;2023-01-29T09:05:56;49.88;;;25.52;;
41293;SDS011;27037;52.010;4.446;2023-01-29T09:08:22;46.17;;;27.30;;
41293;SDS011;27037;52.010;4.446;2023-01-29T09:10:47;49.80;;;26.15;;
41293;SDS011;27037;52.010;4.446;2023-01-29T09:13:13;47.88;;;26.08;;
41293;SDS011;27037;52.010;4.446;2023-01-29T09:15:38;48.45;;;26.08;;
41293;SDS011;27037;52.010;4.446;2023-01-29T09:18:04;49.17;;;26.95;;
41293;SDS011;27037;52.010;4.446;2023-01-29T09:20:30;46.47;;;25.98;;
41293;SDS011;27037;52.010;4.446;2023-01-29T09:22:56;48.95;;;26.60;;
41293;SDS011;27037;52.010;4.446;2023-01-29T09:25:23;47.15;;;26.15;;
41293;SDS011;27037;52.010;4.446;2023-01-29T09:27:49;46.53;;;26.63;;
41293;SDS011;27037;52.010;4.446;2023-01-29T09:30:15;45.38;;;25.95;;
41293;SDS011;27037;52.010;4.446;2023-01-29T09:32:41;48.05;;;26.08;;
41293;SDS011;27037;52.010;4.446;2023-01-29T09:35:06;50.92;;;27.27;;
41293;SDS011;27037;52.010;4.446;2023-01-29T09:37:33;47.13;;;26.73;;
41293;SDS011;27037;52.010;4.446;2023-01-29T09:39:58;44.55;;;26.17;;
41293;SDS011;27037;52.010;4.446;2023-01-29T09:42:28;50.38;;;27.25;;
41293;SDS011;27037;52.010;4.446;2023-01-29T09:47:39;49.25;;;27.23;;
41293;SDS011;27037;52.010;4.446;2023-01-29T09:52:49;49.97;;;27.10;;
41293;SDS011;27037;52.010;4.446;2023-01-29T09:55:48;47.30;;;27.15;;
41293;SDS011;27037;52.010;4.446;2023-01-29T09:58:36;52.95;;;27.45;;
41293;SDS011;27037;52.010;4.446;2023-01-29T10:01:16;48.97;;;27.63;;
41293;SDS011;27037;52.010;4.446;2023-01-29T10:04:00;48.35;;;28.02;;
41293;SDS011;27037;52.010;4.446;2023-01-29T10:20:42;46.15;;;27.75;;
41293;SDS011;27037;52.010;4.446;2023-01-29T10:23:33;47.20;;;27.70;;
41293;SDS011;27037;52.010;4.446;2023-01-29T10:26:11;54.60;;;29.88;;
41293;SDS011;27037;52.010;4.446;2023-01-29T10:28:44;49.88;;;29.55;;
41293;SDS011;27037;52.010;4.446;2023-01-29T10:31:18;52.20;;;28.45;;
41293;SDS011;27037;52.010;4.446;2023-01-29T10:36:37;51.60;;;28.67;;
41293;SDS011;27037;52.010;4.446;2023-01-29T10:39:19;52.10;;;29.38;;
41293;SDS011;27037;52.010;4.446;2023-01-29T10:50:15;55.70;;;29.17;;
41293;SDS011;27037;52.010;4.446;2023-01-29T11:00:31;55.45;;;29.58;;
41293;SDS011;27037;52.010;4.446;2023-01-29T11:11:13;52.28;;;29.35;;
41293;SDS011;27037;52.010;4.446;2023-01-29T11:13:53;53.33;;;30.65;;
41293;SDS011;27037;52.010;4.446;2023-01-29T11:16:23;50.33;;;28.42;;
41293;SDS011;27037;52.010;4.446;2023-01-29T11:21:17;49.35;;;28.75;;
41293;SDS011;27037;52.010;4.446;2023-01-29T11:23:43;49.50;;;29.13;;
41293;SDS011;27037;52.010;4.446;2023-01-29T11:26:11;50.90;;;30.02;;
41293;SDS011;27037;52.010;4.446;2023-01-29T11:28:42;48.22;;;28.83;;
41293;SDS011;27037;52.010;4.446;2023-01-29T11:31:25;52.30;;;29.80;;
41293;SDS011;27037;52.010;4.446;2023-01-29T11:34:04;56.83;;;29.40;;
41293;SDS011;27037;52.010;4.446;2023-01-29T11:36:40;50.30;;;28.20;;
41293;SDS011;27037;52.010;4.446;2023-01-29T11:39:11;52.22;;;29.45;;
41293;SDS011;27037;52.010;4.446;2023-01-29T11:41:54;55.00;;;30.63;;
41293;SDS011;27037;52.010;4.446;2023-01-29T11:47:20;50.78;;;28.50;;
41293;SDS011;27037;52.010;4.446;2023-01-29T11:52:18;53.60;;;29.75;;
41293;SDS011;27037;52.010;4.446;2023-01-29T11:54:53;51.20;;;29.73;;
41293;SDS011;27037;52.010;4.446;2023-01-29T12:00:20;53.83;;;28.10;;
41293;SDS011;27037;52.010;4.446;2023-01-29T12:05:36;49.47;;;28.93;;
41293;SDS011;27037;52.010;4.446;2023-01-29T12:08:09;47.95;;;28.02;;
41293;SDS011;27037;52.010;4.446;2023-01-29T12:10:41;49.63;;;28.35;;
41293;SDS011;27037;52.010;4.446;2023-01-29T12:15:43;47.67;;;27.88;;
41293;SDS011;27037;52.010;4.446;2023-01-29T12:20:58;46.85;;;27.67;;
41293;SDS011;27037;52.010;4.446;2023-01-29T12:23:46;47.60;;;27.35;;
41293;SDS011;27037;52.010;4.446;2023-01-29T12:29:36;48.83;;;27.83;;
41293;SDS011;27037;52.010;4.446;2023-01-29T12:35:05;47.45;;;27.15;;
41293;SDS011;27037;52.010;4.446;2023-01-29T12:40:24;48.03;;;27.05;;
41293;SDS011;27037;52.010;4.446;2023-01-29T12:42:54;44.13;;;26.13;;
41293;SDS011;27037;52.010;4.446;2023-01-29T12:45:24;48.10;;;28.13;;
41293;SDS011;27037;52.010;4.446;2023-01-29T12:47:59;45.25;;;26.92;;
41293;SDS011;27037;52.010;4.446;2023-01-29T12:50:33;44.10;;;25.85;;
41293;SDS011;27037;52.010;4.446;2023-01-29T13:01:35;44.90;;;26.08;;
41293;SDS011;27037;52.010;4.446;2023-01-29T13:04:15;45.08;;;25.73;;
41293;SDS011;27037;52.010;4.446;2023-01-29T13:06:44;43.38;;;25.75;;
41293;SDS011;27037;52.010;4.446;2023-01-29T13:09:18;44.33;;;25.77;;
41293;SDS011;27037;52.010;4.446;2023-01-29T13:11:52;42.97;;;25.80;;
